createdAt,value
2023-03-26T00:01:23.735Z,16.83
2023-03-26T00:03:55.296Z,9.75
2023-03-26T00:06:23.980Z,13.55
2023-03-26T00:08:51.401Z,11.65
2023-03-26T00:11:19.930Z,16.38
2023-03-26T00:13:47.651Z,16.50
2023-03-26T00:16:17.236Z,15.05
2023-03-26T00:18:44.934Z,9.63
2023-03-26T00:21:14.518Z,13.85
2023-03-26T00:23:41.604Z,12.63
2023-03-26T00:26:12.898Z,13.68
2023-03-26T00:28:41.514Z,18.70
2023-03-26T00:31:10.724Z,9.90
2023-03-26T00:33:38.425Z,11.98
2023-03-26T00:36:10.061Z,14.02
2023-03-26T00:38:39.205Z,12.23
2023-03-26T00:41:17.979Z,21.92
2023-03-26T00:43:46.631Z,13.10
2023-03-26T00:46:13.873Z,12.98
2023-03-26T00:48:45.855Z,11.15
2023-03-26T00:51:17.531Z,13.45
2023-03-26T00:53:46.349Z,12.05
2023-03-26T00:56:13.685Z,17.15
2023-03-26T00:58:40.940Z,13.65
2023-03-26T01:01:18.965Z,18.45
2023-03-26T01:03:57.084Z,14.35
2023-03-26T01:06:34.227Z,14.05
2023-03-26T01:09:12.727Z,17.00
2023-03-26T01:11:39.340Z,11.82
2023-03-26T01:14:10.359Z,11.82
2023-03-26T01:16:50.098Z,10.60
2023-03-26T01:19:45.193Z,12.02
2023-03-26T01:22:16.598Z,6.60
2023-03-26T01:24:46.102Z,12.52
2023-03-26T01:27:27.647Z,16.48
2023-03-26T01:30:20.899Z,11.07
2023-03-26T01:33:16.545Z,10.02
2023-03-26T01:36:00.461Z,12.23
2023-03-26T01:38:37.541Z,11.57
2023-03-26T01:41:05.549Z,13.52
2023-03-26T01:43:56.354Z,10.70
2023-03-26T01:46:25.680Z,14.52
2023-03-26T01:48:52.402Z,7.68
2023-03-26T01:51:34.605Z,14.63
2023-03-26T01:54:04.266Z,16.42
2023-03-26T01:56:36.863Z,16.40
2023-03-26T01:59:25.417Z,13.68
2023-03-26T02:02:16.568Z,13.85
2023-03-26T02:07:38.083Z,11.73
2023-03-26T02:10:14.869Z,9.57
2023-03-26T02:12:43.830Z,6.10
2023-03-26T02:15:11.820Z,8.23
2023-03-26T02:17:41.628Z,10.73
2023-03-26T02:20:11.343Z,13.98
2023-03-26T02:22:41.838Z,10.45
2023-03-26T02:25:10.307Z,8.70
2023-03-26T02:27:37.747Z,18.67
2023-03-26T02:30:09.562Z,14.32
2023-03-26T02:32:36.371Z,12.35
2023-03-26T02:35:05.456Z,10.32
2023-03-26T02:37:33.950Z,7.72
2023-03-26T02:40:01.289Z,13.38
2023-03-26T02:42:28.078Z,11.88
2023-03-26T02:44:54.686Z,13.32
2023-03-26T02:47:21.235Z,11.57
2023-03-26T02:49:47.898Z,9.85
2023-03-26T02:52:17.135Z,12.63
2023-03-26T02:54:43.746Z,7.30
2023-03-26T02:57:10.306Z,11.35
2023-03-26T02:59:36.910Z,9.20
2023-03-26T03:02:04.081Z,14.65
2023-03-26T03:04:30.685Z,6.70
2023-03-26T03:06:57.680Z,10.85
2023-03-26T03:09:27.644Z,12.68
2023-03-26T03:11:54.258Z,13.15
2023-03-26T03:14:21.128Z,11.57
2023-03-26T03:16:47.756Z,14.85
2023-03-26T03:19:14.537Z,9.20
2023-03-26T03:21:42.077Z,11.10
2023-03-26T03:24:09.548Z,9.75
2023-03-26T03:26:36.487Z,11.52
2023-03-26T03:29:03.404Z,12.50
2023-03-26T03:31:30.074Z,12.98
2023-03-26T03:33:56.786Z,7.85
2023-03-26T03:36:27.673Z,6.57
2023-03-26T03:38:54.287Z,12.27
2023-03-26T03:41:20.895Z,7.88
2023-03-26T03:43:47.470Z,12.30
2023-03-26T03:46:14.071Z,12.18
2023-03-26T03:48:40.714Z,9.63
2023-03-26T03:51:07.398Z,12.48
2023-03-26T03:53:37.281Z,11.02
2023-03-26T03:56:04.680Z,9.52
2023-03-26T03:58:31.397Z,14.27
2023-03-26T04:01:04.195Z,9.77
2023-03-26T04:03:33.353Z,15.73
2023-03-26T04:06:01.343Z,11.57
2023-03-26T04:08:27.995Z,10.68
2023-03-26T04:10:54.563Z,10.52
2023-03-26T04:13:21.542Z,8.75
2023-03-26T04:15:48.336Z,7.68
2023-03-26T04:18:15.219Z,15.05
2023-03-26T04:20:47.420Z,13.20
2023-03-26T04:23:14.941Z,7.80
2023-03-26T04:25:45.901Z,7.43
2023-03-26T04:28:26.457Z,11.38
2023-03-26T04:30:54.715Z,8.82
2023-03-26T04:33:21.534Z,10.57
2023-03-26T04:35:48.493Z,8.20
2023-03-26T04:38:16.947Z,14.10
2023-03-26T04:40:47.394Z,9.85
2023-03-26T04:43:16.504Z,12.32
2023-03-26T04:45:43.660Z,13.38
2023-03-26T04:48:14.385Z,9.10
2023-03-26T04:50:45.659Z,12.00
2023-03-26T04:53:16.163Z,10.20
2023-03-26T04:55:49.487Z,11.93
2023-03-26T04:58:16.428Z,10.32
2023-03-26T05:00:43.462Z,9.05
2023-03-26T05:03:11.779Z,11.32
2023-03-26T05:05:39.920Z,13.68
2023-03-26T05:08:06.986Z,11.38
2023-03-26T05:10:33.712Z,14.65
2023-03-26T05:13:00.380Z,10.45
2023-03-26T05:15:27.116Z,10.93
2023-03-26T05:17:55.487Z,10.18
2023-03-26T05:20:28.112Z,10.20
2023-03-26T05:22:54.703Z,8.15
2023-03-26T05:25:21.464Z,11.15
2023-03-26T05:27:48.350Z,6.82
2023-03-26T05:30:17.631Z,7.53
2023-03-26T05:32:44.451Z,4.38
2023-03-26T05:35:11.779Z,9.27
2023-03-26T05:37:38.961Z,11.32
2023-03-26T05:40:12.334Z,5.95
2023-03-26T05:42:39.855Z,8.05
2023-03-26T05:45:08.240Z,9.80
2023-03-26T05:47:35.518Z,10.48
2023-03-26T05:50:02.347Z,8.30
2023-03-26T05:52:29.147Z,9.38
2023-03-26T05:54:55.796Z,6.70
2023-03-26T05:57:23.906Z,8.95
2023-03-26T05:59:50.837Z,5.25
2023-03-26T06:02:17.466Z,5.20
2023-03-26T06:04:45.798Z,6.55
2023-03-26T06:07:12.727Z,5.55
2023-03-26T06:09:40.204Z,3.30
2023-03-26T06:12:08.202Z,5.68
2023-03-26T06:14:35.315Z,8.50
2023-03-26T06:17:02.254Z,6.45
2023-03-26T06:19:28.844Z,9.15
2023-03-26T06:21:55.776Z,9.32
2023-03-26T06:24:22.472Z,6.70
2023-03-26T06:26:49.176Z,8.13
2023-03-26T06:29:16.104Z,8.32
2023-03-26T06:31:42.869Z,2.85
2023-03-26T06:34:09.666Z,8.13
2023-03-26T06:36:36.954Z,5.45
2023-03-26T06:39:07.800Z,5.82
2023-03-26T06:41:35.277Z,4.03
2023-03-26T06:44:01.960Z,4.78
2023-03-26T06:46:29.186Z,6.30
2023-03-26T06:48:55.852Z,2.92
2023-03-26T06:51:22.492Z,6.32
2023-03-26T06:53:49.177Z,4.57
2023-03-26T06:56:15.937Z,3.30
2023-03-26T06:58:42.531Z,3.97
2023-03-26T07:01:09.408Z,2.47
2023-03-26T07:03:36.077Z,3.22
2023-03-26T07:06:02.786Z,4.28
2023-03-26T07:08:30.914Z,5.10
2023-03-26T07:10:57.785Z,3.83
2023-03-26T07:13:24.692Z,3.95
2023-03-26T07:15:51.439Z,3.33
2023-03-26T07:18:18.326Z,3.47
2023-03-26T07:20:46.161Z,3.03
2023-03-26T07:23:15.566Z,5.80
2023-03-26T07:25:42.587Z,3.97
2023-03-26T07:28:37.389Z,5.13
2023-03-26T07:31:13.110Z,6.72
2023-03-26T07:33:45.553Z,3.85
2023-03-26T07:36:45.461Z,3.42
2023-03-26T07:39:53.393Z,2.75
2023-03-26T07:42:44.276Z,4.45
2023-03-26T07:45:16.217Z,2.17
2023-03-26T07:47:45.050Z,4.63
2023-03-26T07:50:20.453Z,5.90
2023-03-26T07:52:47.287Z,4.03
2023-03-26T07:55:15.736Z,4.85
2023-03-26T07:58:01.097Z,4.68
2023-03-26T08:00:45.788Z,2.58
2023-03-26T08:03:21.258Z,5.70
2023-03-26T08:06:16.018Z,4.28
2023-03-26T08:08:57.557Z,2.90
2023-03-26T08:11:34.999Z,4.63
2023-03-26T08:14:17.775Z,2.75
2023-03-26T08:16:59.143Z,2.22
2023-03-26T08:19:35.232Z,4.43
2023-03-26T08:22:16.863Z,2.53
2023-03-26T08:24:55.664Z,4.13
2023-03-26T08:27:34.555Z,2.90
2023-03-26T08:30:09.841Z,3.53
2023-03-26T08:32:36.670Z,3.55
2023-03-26T08:35:04.400Z,1.98
2023-03-26T08:37:31.216Z,3.40
2023-03-26T08:39:57.825Z,2.13
2023-03-26T08:42:35.960Z,2.13
2023-03-26T08:45:39.178Z,3.65
2023-03-26T08:48:18.000Z,4.43
2023-03-26T08:51:30.610Z,5.22
2023-03-26T08:54:29.534Z,5.68
2023-03-26T08:57:08.046Z,2.80
2023-03-26T08:59:46.483Z,2.10
2023-03-26T09:02:28.346Z,1.95
2023-03-26T09:05:19.154Z,3.33
2023-03-26T09:08:04.676Z,4.57
2023-03-26T09:10:52.455Z,3.38
2023-03-26T09:13:25.632Z,3.25
2023-03-26T09:16:19.893Z,2.13
2023-03-26T09:19:30.522Z,3.70
2023-03-26T09:22:27.335Z,3.78
2023-03-26T09:25:26.157Z,3.78
2023-03-26T09:28:22.111Z,3.97
2023-03-26T09:31:11.956Z,2.72
2023-03-26T09:33:42.788Z,2.78
2023-03-26T09:36:21.785Z,2.17
2023-03-26T09:39:29.825Z,2.03
2023-03-26T09:42:17.519Z,4.38
2023-03-26T09:45:10.694Z,3.13
2023-03-26T09:48:05.438Z,2.53
2023-03-26T09:50:39.189Z,3.65
2023-03-26T09:53:32.601Z,2.47
2023-03-26T09:56:23.467Z,5.70
2023-03-26T09:59:04.779Z,4.03
2023-03-26T10:01:58.157Z,2.38
2023-03-26T10:04:28.938Z,3.60
2023-03-26T10:07:20.204Z,4.97
2023-03-26T10:12:36.609Z,5.78
2023-03-26T10:15:43.353Z,6.95
2023-03-26T10:18:32.742Z,6.30
2023-03-26T10:21:07.186Z,4.85
2023-03-26T10:24:13.713Z,5.30
2023-03-26T10:27:08.705Z,3.83
2023-03-26T10:29:45.748Z,5.68
2023-03-26T10:32:30.925Z,4.15
2023-03-26T10:35:19.390Z,4.30
2023-03-26T10:37:54.367Z,3.80
2023-03-26T10:40:23.871Z,4.22
2023-03-26T10:43:08.941Z,3.40
2023-03-26T10:45:42.375Z,3.47
2023-03-26T10:48:27.145Z,3.65
2023-03-26T10:51:05.518Z,2.30
2023-03-26T10:54:00.676Z,4.72
2023-03-26T10:56:33.090Z,4.75
2023-03-26T10:59:05.740Z,3.47
2023-03-26T11:02:06.372Z,2.70
2023-03-26T11:05:10.399Z,2.75
2023-03-26T11:07:51.783Z,2.58
2023-03-26T11:10:36.899Z,4.38
2023-03-26T11:13:24.397Z,5.35
2023-03-26T11:15:55.839Z,4.25
2023-03-26T11:18:39.840Z,13.13
2023-03-26T11:21:33.668Z,6.53
2023-03-26T11:24:38.720Z,4.13
2023-03-26T11:27:30.918Z,6.82
2023-03-26T11:30:06.420Z,7.43
2023-03-26T11:32:45.166Z,6.82
2023-03-26T11:35:40.577Z,3.15
2023-03-26T11:38:31.925Z,2.70
2023-03-26T11:41:01.938Z,2.97
2023-03-26T11:43:35.102Z,2.85
2023-03-26T11:46:04.739Z,5.57
2023-03-26T11:48:37.500Z,3.80
2023-03-26T11:51:20.536Z,3.28
2023-03-26T11:53:47.269Z,4.35
2023-03-26T11:56:41.896Z,3.75
2023-03-26T11:59:39.242Z,3.67
2023-03-26T12:02:18.392Z,4.57
2023-03-26T12:07:18.882Z,7.47
2023-03-26T12:10:17.748Z,3.00
2023-03-26T12:12:47.540Z,5.32
2023-03-26T12:15:20.382Z,3.70
2023-03-26T12:17:51.486Z,6.63
2023-03-26T12:20:27.012Z,4.85
2023-03-26T12:23:00.835Z,4.90
2023-03-26T12:25:30.029Z,4.15
2023-03-26T12:28:02.739Z,4.65
2023-03-26T12:30:37.992Z,3.17
2023-03-26T12:33:07.727Z,4.60
2023-03-26T12:35:35.779Z,6.93
2023-03-26T12:38:40.725Z,4.07
2023-03-26T12:44:47.167Z,3.95
2023-03-26T12:44:59.170Z,5.13
2023-03-26T12:48:01.303Z,5.57
2023-03-26T12:50:34.514Z,3.40
2023-03-26T12:53:14.919Z,4.95
2023-03-26T12:55:57.761Z,4.38
2023-03-26T12:58:39.573Z,5.10
2023-03-26T13:01:09.304Z,5.18
2023-03-26T13:04:08.361Z,4.38
2023-03-26T13:07:02.218Z,5.32
2023-03-26T13:09:44.261Z,4.70
2023-03-26T13:12:29.464Z,4.32
2023-03-26T13:15:03.782Z,3.97
2023-03-26T13:17:43.771Z,5.07
2023-03-26T13:20:29.493Z,4.47
2023-03-26T13:23:12.486Z,4.25
2023-03-26T13:26:01.263Z,3.53
2023-03-26T13:28:56.961Z,5.30
2023-03-26T13:31:36.504Z,3.53
2023-03-26T13:34:18.683Z,3.53
2023-03-26T13:37:14.612Z,6.88
2023-03-26T13:40:05.038Z,4.15
2023-03-26T13:42:46.125Z,6.47
2023-03-26T13:45:46.967Z,8.00
2023-03-26T13:48:19.114Z,4.35
2023-03-26T13:50:57.225Z,10.32
2023-03-26T13:53:29.331Z,3.13
2023-03-26T13:55:59.182Z,10.93
2023-03-26T13:58:50.686Z,12.95
2023-03-26T14:01:26.249Z,7.55
2023-03-26T14:04:03.503Z,4.03
2023-03-26T14:06:46.824Z,8.15
2023-03-26T14:09:36.280Z,10.52
2023-03-26T14:12:21.341Z,9.35
2023-03-26T14:15:06.631Z,7.47
2023-03-26T14:17:50.726Z,10.95
2023-03-26T14:20:32.511Z,10.40
2023-03-26T14:23:01.885Z,7.40
2023-03-26T14:25:32.916Z,10.70
2023-03-26T14:28:21.459Z,16.40
2023-03-26T14:30:54.424Z,8.68
2023-03-26T14:33:30.347Z,11.52
2023-03-26T14:36:43.385Z,10.23
2023-03-26T14:39:28.349Z,13.32
2023-03-26T14:44:56.452Z,8.35
2023-03-26T14:47:26.960Z,9.68
2023-03-26T14:50:08.942Z,8.85
2023-03-26T14:52:51.889Z,8.50
2023-03-26T14:56:00.080Z,5.00
2023-03-26T14:58:54.692Z,14.07
2023-03-26T15:01:43.301Z,4.13
2023-03-26T15:04:28.567Z,9.50
2023-03-26T15:07:18.761Z,7.45
2023-03-26T15:10:14.298Z,9.90
2023-03-26T15:13:11.564Z,14.35
2023-03-26T15:15:54.675Z,9.00
2023-03-26T15:19:01.497Z,6.70
2023-03-26T15:22:18.676Z,5.63
2023-03-26T15:25:00.282Z,14.45
2023-03-26T15:27:42.177Z,5.47
2023-03-26T15:30:36.818Z,6.38
2023-03-26T15:33:35.051Z,10.18
2023-03-26T15:36:26.646Z,8.80
2023-03-26T15:39:18.244Z,8.68
2023-03-26T15:42:05.996Z,5.68
2023-03-26T15:44:53.705Z,5.82
2023-03-26T15:47:42.015Z,5.80
2023-03-26T15:50:18.097Z,5.60
2023-03-26T15:53:12.801Z,11.23
2023-03-26T15:55:46.288Z,9.27
2023-03-26T15:58:39.365Z,7.38
2023-03-26T16:01:47.305Z,6.35
2023-03-26T16:04:26.415Z,7.97
2023-03-26T16:06:57.297Z,5.72
2023-03-26T16:09:32.462Z,11.02
2023-03-26T16:12:20.263Z,9.55
2023-03-26T16:15:04.012Z,8.82
2023-03-26T16:18:10.362Z,9.70
2023-03-26T16:20:54.837Z,7.35
2023-03-26T16:23:47.693Z,8.70
2023-03-26T16:26:19.659Z,5.45
2023-03-26T16:28:46.854Z,11.38
2023-03-26T16:31:37.211Z,9.60
2023-03-26T16:34:08.374Z,7.03
2023-03-26T16:36:43.352Z,7.10
2023-03-26T16:39:19.225Z,8.80
2023-03-26T16:41:46.927Z,13.25
2023-03-26T16:44:43.151Z,7.05
2023-03-26T16:47:20.389Z,8.88
2023-03-26T16:50:08.968Z,9.68
2023-03-26T16:52:47.903Z,6.68
2023-03-26T16:55:28.637Z,30.75
2023-03-26T16:57:58.301Z,9.52
2023-03-26T17:00:40.294Z,9.18
2023-03-26T17:03:25.658Z,9.55
2023-03-26T17:05:58.226Z,6.22
2023-03-26T17:08:36.487Z,8.48
2023-03-26T17:11:20.543Z,6.75
2023-03-26T17:14:05.457Z,5.32
2023-03-26T17:19:35.485Z,4.85
2023-03-26T17:22:18.536Z,7.85
2023-03-26T17:25:21.557Z,6.75
2023-03-26T17:28:16.808Z,10.38
2023-03-26T17:30:58.276Z,7.13
2023-03-26T17:33:36.862Z,4.75
2023-03-26T17:38:39.329Z,5.22
2023-03-26T17:41:11.314Z,6.15
2023-03-26T17:43:45.572Z,6.20
2023-03-26T17:46:32.978Z,6.00
2023-03-26T17:49:16.554Z,8.35
2023-03-26T17:52:15.112Z,8.63
2023-03-26T17:54:49.138Z,6.72
2023-03-26T17:57:15.939Z,4.75
2023-03-26T17:59:44.643Z,5.85
2023-03-26T18:02:16.041Z,5.68
2023-03-26T18:04:47.833Z,3.50
2023-03-26T18:07:58.857Z,6.80
2023-03-26T18:11:03.096Z,8.75
2023-03-26T18:13:35.495Z,4.43
2023-03-26T18:16:17.280Z,11.38
2023-03-26T18:18:57.873Z,6.43
2023-03-26T18:21:27.076Z,5.13
2023-03-26T18:23:54.017Z,6.70
2023-03-26T18:26:34.434Z,5.60
2023-03-26T18:29:31.323Z,4.93
2023-03-26T18:32:07.348Z,7.28
2023-03-26T18:34:34.518Z,10.68
2023-03-26T18:37:23.196Z,3.92
2023-03-26T18:40:00.823Z,6.25
2023-03-26T18:42:29.681Z,6.22
2023-03-26T18:45:00.281Z,4.57
2023-03-26T18:47:30.411Z,7.18
2023-03-26T18:49:58.251Z,3.75
2023-03-26T18:52:27.896Z,5.43
2023-03-26T18:54:55.658Z,7.03
2023-03-26T18:57:25.144Z,5.45
2023-03-26T18:59:54.189Z,8.25
2023-03-26T19:02:21.918Z,6.25
2023-03-26T19:04:50.953Z,5.85
2023-03-26T19:07:25.099Z,3.33
2023-03-26T19:09:56.267Z,4.30
2023-03-26T19:12:28.289Z,5.20
2023-03-26T19:15:16.831Z,6.25
2023-03-26T19:17:47.200Z,2.15
2023-03-26T19:20:23.399Z,3.10
2023-03-26T19:22:50.685Z,8.65
2023-03-26T19:25:22.730Z,7.35
2023-03-26T19:27:50.818Z,5.25
2023-03-26T19:30:32.760Z,3.53
2023-03-26T19:33:20.754Z,6.05
2023-03-26T19:35:54.384Z,7.35
2023-03-26T19:38:29.601Z,5.22
2023-03-26T19:40:58.117Z,5.57
2023-03-26T19:43:26.266Z,6.03
2023-03-26T19:46:00.142Z,4.60
2023-03-26T19:48:45.825Z,4.95
2023-03-26T19:51:20.111Z,5.05
2023-03-26T19:53:53.909Z,3.83
2023-03-26T19:56:21.973Z,7.72
2023-03-26T19:58:50.153Z,3.70
2023-03-26T20:01:23.754Z,5.93
2023-03-26T20:03:54.401Z,4.13
2023-03-26T20:06:30.861Z,7.43
2023-03-26T20:09:01.225Z,4.72
2023-03-26T20:11:38.049Z,4.88
2023-03-26T20:14:13.851Z,4.70
2023-03-26T20:16:42.170Z,5.13
2023-03-26T20:19:11.030Z,3.65
2023-03-26T20:21:41.230Z,4.60
2023-03-26T20:24:12.614Z,4.35
2023-03-26T20:26:39.300Z,4.40
2023-03-26T20:29:06.147Z,5.03
2023-03-26T20:31:32.912Z,8.40
2023-03-26T20:33:59.796Z,6.22
2023-03-26T20:36:33.857Z,3.97
2023-03-26T20:39:05.622Z,2.45
2023-03-26T20:41:33.774Z,1.25
2023-03-26T20:44:01.049Z,4.55
2023-03-26T20:46:31.261Z,4.72
2023-03-26T20:48:58.928Z,2.60
2023-03-26T20:51:28.224Z,3.28
2023-03-26T20:53:55.965Z,6.07
2023-03-26T20:56:23.513Z,4.70
2023-03-26T20:58:57.598Z,5.93
2023-03-26T21:01:34.780Z,5.72
2023-03-26T21:04:04.225Z,4.85
2023-03-26T21:06:30.942Z,9.07
2023-03-26T21:08:57.859Z,5.00
2023-03-26T21:11:53.748Z,4.30
2023-03-26T21:14:41.568Z,4.75
2023-03-26T21:17:18.337Z,8.75
2023-03-26T21:19:45.922Z,2.72
2023-03-26T21:22:39.229Z,3.80
2023-03-26T21:25:17.724Z,5.88
2023-03-26T21:28:28.947Z,6.70
2023-03-26T21:31:02.511Z,5.78
2023-03-26T21:33:29.208Z,5.88
2023-03-26T21:35:57.341Z,4.85
2023-03-26T21:38:24.945Z,2.22
2023-03-26T21:40:58.648Z,6.22
2023-03-26T21:43:26.147Z,1.40
2023-03-26T21:45:57.414Z,4.13
2023-03-26T21:48:24.391Z,4.10
2023-03-26T21:50:51.327Z,2.60
2023-03-26T21:53:18.206Z,3.20
2023-03-26T21:56:13.741Z,5.40
2023-03-26T21:58:58.482Z,2.97
2023-03-26T22:01:25.104Z,7.97
2023-03-26T22:04:07.553Z,3.08
2023-03-26T22:06:55.842Z,3.60
2023-03-26T22:09:33.944Z,5.20
2023-03-26T22:12:03.428Z,5.05
2023-03-26T22:14:29.995Z,5.57
2023-03-26T22:16:56.969Z,3.00
2023-03-26T22:19:23.517Z,5.88
2023-03-26T22:21:51.108Z,5.18
2023-03-26T22:24:17.978Z,1.73
2023-03-26T22:26:44.593Z,7.38
2023-03-26T22:29:12.065Z,2.42
2023-03-26T22:31:39.721Z,3.42
2023-03-26T22:34:06.812Z,3.83
2023-03-26T22:36:34.097Z,2.50
2023-03-26T22:39:01.821Z,1.65
2023-03-26T22:41:29.663Z,3.00
2023-03-26T22:43:59.615Z,3.00
2023-03-26T22:46:28.826Z,4.05
2023-03-26T22:48:56.996Z,4.75
2023-03-26T22:51:23.912Z,2.20
2023-03-26T22:53:50.824Z,5.32
2023-03-26T22:56:18.809Z,2.55
2023-03-26T22:58:47.361Z,5.00
2023-03-26T23:01:21.339Z,3.13
2023-03-26T23:03:48.082Z,2.47
2023-03-26T23:06:15.408Z,3.53
2023-03-26T23:08:42.512Z,2.60
2023-03-26T23:11:14.723Z,4.68
2023-03-26T23:13:42.351Z,4.57
2023-03-26T23:16:10.191Z,3.42
2023-03-26T23:18:38.002Z,4.00
2023-03-26T23:21:12.062Z,3.80
2023-03-26T23:23:39.729Z,3.45
2023-03-26T23:26:06.997Z,8.07
2023-03-26T23:28:34.900Z,3.08
2023-03-26T23:31:04.662Z,5.78
2023-03-26T23:33:35.319Z,1.13
2023-03-26T23:36:08.872Z,4.03
2023-03-26T23:38:43.700Z,1.42
2023-03-26T23:41:14.862Z,1.25
2023-03-26T23:43:53.768Z,4.03
2023-03-26T23:46:23.771Z,3.97
2023-03-26T23:48:51.409Z,3.53
2023-03-26T23:51:20.174Z,2.33
2023-03-26T23:53:47.872Z,2.88
2023-03-26T23:56:15.396Z,2.97
2023-03-26T23:58:42.115Z,1.70
